Nearby METAR Reports

 

LIBV - Gioia Del Colle, Italy
Distance from station: EKA 15km
Päivitetty: 24/04/2018 17:55
Selkeätä
Selkeätä
 Tuulen suunta PKO
Tuuli: PKO 13 km/h
Lämpötila: 23°C
Kastepiste: 4°C
Kosteus: 29%
Ilmanpaine: 1018 hPa
Yhteenveto: Selkeätä
Visibility: greater than 10 km
2018/04/24 15:55 LIBV 241555Z 03007KT CAVOK 23/04 Q1018 RMK BKN FEW060 BKN250 VIS MIN 9999 WIND THR32 05005KT WIND THR14 05007KT BLU
LIBD - Bari/Palese Macc, Italy
Distance from station: PLU 26km
Päivitetty: 24/04/2018 17:50
Selkeätä
Selkeätä
 Tuulen suunta IKO
Tuuli: IKO 9 km/h
Lämpötila: 23°C
Kastepiste: 10°C
Kosteus: 44%
Ilmanpaine: 1017 hPa
Yhteenveto: Selkeätä
Visibility: greater than 10 km
2018/04/24 15:50 LIBD 241550Z 07005KT CAVOK 23/10 Q1017
LIBH - Marina Di Ginosa, Italy
Distance from station: E 53km
Päivitetty: 24/04/2018 17:55
Selkeätä
Selkeätä
 Tuulen suunta IKA
Tuuli: IKA 7 km/h
Lämpötila: 22°C
Kastepiste: 17°C
Kosteus: 73%
Ilmanpaine: 1016 hPa
Yhteenveto: Selkeätä
Visibility: greater than 10 km
2018/04/24 15:55 LIBH 241555Z 12004KT CAVOK 22/17 Q1016 RMK BKN SCT100 BKN200 QUK 2 QUL 1 W VIS MAR 20 KM VIS MIN 9999
 
LIBG - Grottaglie(Civ/A, Italy
Distance from station: KA 61km
Päivitetty: 24/04/2018 17:50
Selkeätä
Selkeätä
 Tuulen suunta LLO
Tuuli: LLO 13 km/h
Lämpötila: 24°C
Kastepiste: 12°C
Kosteus: 47%
Ilmanpaine: 1016 hPa
Yhteenveto: Selkeätä
Visibility: greater than 10 km
2018/04/24 15:50 LIBG 241550Z 24007KT CAVOK 24/12 Q1016
LIBR - Brindisi/Casale, Italy
Distance from station: IKA 96km
Päivitetty: 24/04/2018 17:50
Selkeätä
Selkeätä
 Tuulen suunta I
Tuuli: I 6 km/h
Lämpötila: 22°C
Kastepiste: 9°C
Kosteus: 44%
Ilmanpaine: 1017 hPa
Yhteenveto: Selkeätä
Visibility: greater than 10 km
2018/04/24 15:50 LIBR 241550Z 09003KT 060V120 CAVOK 22/09 Q1017
LIBA - Amendola (it-Afb, Italy
Distance from station: LU 118km
Päivitetty: 24/04/2018 17:55
Selkeätä
Selkeätä
 Tuulen suunta I
Tuuli: I 17 km/h
Lämpötila: 22°C
Kastepiste: 15°C
Kosteus: 65%
Ilmanpaine: 1017 hPa
Yhteenveto: Selkeätä
Visibility: greater than 10 km
2018/04/24 15:55 LIBA 241555Z 09009KT CAVOK 22/15 Q1017 RMK SCT SCT200 VIS MIN 9999 WIND THR11 09010KT WIND THR29 /////KT BLU
 
LIBF - Foggia/Gino Lisa, Italy
Distance from station: LLU 126km
Päivitetty: 24/04/2018 17:50
Selkeätä
Selkeätä
 Tuulen suunta ELO
Tuuli: ELO 20 km/h
Lämpötila: 26°C
Kastepiste: 11°C
Kosteus: 39%
Ilmanpaine: 1016 hPa
Yhteenveto: Selkeätä
Visibility: greater than 10 km
2018/04/24 15:50 LIBF 241550Z 21011KT CAVOK 26/11 Q1016
LIBN - Lecce (it-Afb), Italy
Distance from station: KA 132km
Päivitetty: 24/04/2018 17:55
Selkeätä
Selkeätä
 Tuulen suunta PKO
Tuuli: PKO 7 km/h
Lämpötila: 24°C
Kastepiste: 8°C
Kosteus: 36%
Ilmanpaine: 1017 hPa
Yhteenveto: Selkeätä
Visibility: greater than 10 km
2018/04/24 15:55 LIBN 241555Z 03004KT CAVOK 24/08 Q1017 RMK SCT SCT200 VIS MIN 9999 WIND THR14 03004KT WIND THR32 02004KT BLU